PWSweather.com
Personal Weather Stations
Station Observations

CreweGB

Lat: 53.0806, Lon: -2.476

Elevation: 151

Station Type: Davis Vantage Pro 2

http://www.c9700170.myzen.co.uk/weather/

Latest ConditionsUpdated 3:00:03 PM GMT Wednesday, Nov 21, 2018
Currently Today's Max Today's Min Today's Average
Temperature 40.3°F4.6°C 40.3°F4.6°C 36.9°F2.7°C 38.3°F3.5°C
Dew Point 37.6°F3.1°C 37.6°F3.1°C 35.0°F1.7°C 35.8°F2.1°C
Winds 6.0 mph SE9.7 kmh SE 10.0 mph -16.1 kmh - - 4.1 mph 6.6 kmh
Wind Gusts 12.0 mph19.3 kmh 21.0 mph33.8 kmh - -
Humidity 90% 93% 85% 91%
Pressure 29.90 in1012.5 mb 29.90 in1012.5 mb 29.69 in1005.4 mb -
Precipitation - 0.07 in1.8 mm - -
Hour Temp Dew Point Humidity Winds Wind Gusts Pressure Precip Precip Rate Daily Precip Total
03:00 PM 40.3°F4.6°C 37.6°F3.1°C 90% 6.0 mph SE9.7 kmh SE 12.0 mph19.3 kmh 29.90 in1012.5 mb 0.01 in0.3 mm 0.00 in0.0 mm 0.07 in1.8 mm
02:50 PM 40.1°F4.5°C 37.4°F3.0°C 90% 6.0 mph SE9.7 kmh SE 14.0 mph22.5 kmh 29.89 in1012.2 mb 0.01 in0.3 mm 0.00 in0.0 mm 0.07 in1.8 mm
02:40 PM 39.9°F4.4°C 37.2°F2.9°C 90% 5.0 mph SE8.0 kmh SE 13.0 mph20.9 kmh 29.89 in1012.2 mb 0.01 in0.3 mm 0.06 in1.5 mm 0.07 in1.8 mm
02:30 PM 39.7°F4.3°C 37.0°F2.8°C 90% 7.0 mph SE11.3 kmh SE 17.0 mph27.4 kmh 29.89 in1012.2 mb 0.00 in0.0 mm 0.00 in0.0 mm 0.06 in1.5 mm
02:20 PM 39.4°F4.1°C 37.0°F2.8°C 91% 7.0 mph SE11.3 kmh SE 16.0 mph25.7 kmh 29.89 in1012.2 mb 0.00 in0.0 mm 0.00 in0.0 mm 0.06 in1.5 mm
02:10 PM 39.2°F4.0°C 36.5°F2.5°C 90% 6.0 mph SE9.7 kmh SE 13.0 mph20.9 kmh 29.88 in1011.9 mb 0.00 in0.0 mm 0.00 in0.0 mm 0.06 in1.5 mm
02:00 PM 38.8°F3.8°C 36.2°F2.3°C 90% 3.0 mph SE4.8 kmh SE 9.0 mph14.5 kmh 29.88 in1011.9 mb 0.00 in0.0 mm 0.00 in0.0 mm 0.06 in1.5 mm
01:50 PM 38.7°F3.7°C 36.0°F2.2°C 90% 3.0 mph ESE4.8 kmh ESE 9.0 mph14.5 kmh 29.88 in1011.9 mb 0.00 in0.0 mm 0.00 in0.0 mm 0.06 in1.5 mm
01:40 PM 38.5°F3.6°C 35.8°F2.1°C 90% 3.0 mph SE4.8 kmh SE 7.0 mph11.3 kmh 29.87 in1011.5 mb 0.01 in0.3 mm 0.00 in0.0 mm 0.06 in1.5 mm
01:30 PM 38.5°F3.6°C 35.5°F1.9°C 89% 5.0 mph ESE8.0 kmh ESE 12.0 mph19.3 kmh 29.87 in1011.5 mb 0.02 in0.5 mm 0.00 in0.0 mm 0.06 in1.5 mm
01:20 PM 38.5°F3.6°C 35.5°F1.9°C 89% 5.0 mph ESE8.0 kmh ESE 12.0 mph19.3 kmh 29.88 in1011.9 mb 0.02 in0.5 mm 0.00 in0.0 mm 0.06 in1.5 mm
01:10 PM 38.7°F3.7°C 35.4°F1.9°C 88% 6.0 mph SE9.7 kmh SE 12.0 mph19.3 kmh 29.87 in1011.5 mb 0.02 in0.5 mm 0.00 in0.0 mm 0.06 in1.5 mm
01:00 PM 38.7°F3.7°C 35.4°F1.9°C 88% 5.0 mph ESE8.0 kmh ESE 10.0 mph16.1 kmh 29.87 in1011.5 mb 0.02 in0.5 mm 0.00 in0.0 mm 0.06 in1.5 mm
12:50 PM 38.8°F3.8°C 35.3°F1.8°C 87% 6.0 mph ESE9.7 kmh ESE 13.0 mph20.9 kmh 29.86 in1011.2 mb 0.02 in0.5 mm 0.06 in1.5 mm 0.06 in1.5 mm
12:40 PM 39.2°F4.0°C 35.4°F1.9°C 86% 7.0 mph SE11.3 kmh SE 17.0 mph27.4 kmh 29.86 in1011.2 mb 0.01 in0.3 mm 0.06 in1.5 mm 0.06 in1.5 mm
12:30 PM 39.4°F4.1°C 35.2°F1.8°C 85% 7.0 mph SE11.3 kmh SE 15.0 mph24.1 kmh 29.86 in1011.2 mb 0.00 in0.0 mm 0.00 in0.0 mm 0.05 in1.3 mm
12:20 PM 39.4°F4.1°C 35.2°F1.8°C 85% 7.0 mph SE11.3 kmh SE 16.0 mph25.7 kmh 29.86 in1011.2 mb 0.00 in0.0 mm 0.00 in0.0 mm 0.05 in1.3 mm
12:10 PM 39.4°F4.1°C 35.2°F1.8°C 85% 7.0 mph SE11.3 kmh SE 16.0 mph25.7 kmh 29.86 in1011.2 mb 0.00 in0.0 mm 0.00 in0.0 mm 0.05 in1.3 mm
12:00 PM 39.4°F4.1°C 35.2°F1.8°C 85% 6.0 mph SE9.7 kmh SE 13.0 mph20.9 kmh 29.86 in1011.2 mb 0.00 in0.0 mm 0.00 in0.0 mm 0.05 in1.3 mm
11:50 AM 39.2°F4.0°C 35.1°F1.7°C 85% 7.0 mph S11.3 kmh S 16.0 mph25.7 kmh 29.86 in1011.2 mb 0.00 in0.0 mm 0.00 in0.0 mm 0.05 in1.3 mm
11:40 AM 39.2°F4.0°C 35.1°F1.7°C 85% 8.0 mph SE12.9 kmh SE 14.0 mph22.5 kmh 29.85 in1010.8 mb 0.00 in0.0 mm 0.00 in0.0 mm 0.05 in1.3 mm
11:30 AM 39.0°F3.9°C 35.2°F1.8°C 86% 9.0 mph SE14.5 kmh SE 18.0 mph29.0 kmh 29.85 in1010.8 mb 0.00 in0.0 mm 0.00 in0.0 mm 0.05 in1.3 mm
11:20 AM 38.8°F3.8°C 35.0°F1.7°C 86% 9.0 mph SE14.5 kmh SE 20.0 mph32.2 kmh 29.85 in1010.8 mb 0.00 in0.0 mm 0.00 in0.0 mm 0.05 in1.3 mm
11:10 AM 38.8°F3.8°C 35.0°F1.7°C 86% 8.0 mph SE12.9 kmh SE 17.0 mph27.4 kmh 29.84 in1010.5 mb 0.00 in0.0 mm 0.00 in0.0 mm 0.05 in1.3 mm
11:00 AM 38.8°F3.8°C 35.3°F1.8°C 87% 9.0 mph SE14.5 kmh SE 20.0 mph32.2 kmh 29.84 in1010.5 mb 0.00 in0.0 mm 0.00 in0.0 mm 0.05 in1.3 mm
10:50 AM 39.0°F3.9°C 35.5°F1.9°C 87% 7.0 mph SE11.3 kmh SE 15.0 mph24.1 kmh 29.84 in1010.5 mb 0.00 in0.0 mm 0.00 in0.0 mm 0.05 in1.3 mm
10:40 AM 39.2°F4.0°C 35.7°F2.1°C 87% 6.0 mph SE9.7 kmh SE 13.0 mph20.9 kmh 29.83 in1010.2 mb 0.00 in0.0 mm 0.00 in0.0 mm 0.05 in1.3 mm
10:30 AM 38.5°F3.6°C 35.5°F1.9°C 89% 8.0 mph SE12.9 kmh SE 15.0 mph24.1 kmh 29.83 in1010.2 mb 0.00 in0.0 mm 0.00 in0.0 mm 0.05 in1.3 mm
10:20 AM 38.5°F3.6°C 35.5°F1.9°C 89% 9.0 mph SE14.5 kmh SE 17.0 mph27.4 kmh 29.82 in1009.8 mb 0.00 in0.0 mm 0.00 in0.0 mm 0.05 in1.3 mm
10:10 AM 38.5°F3.6°C 35.8°F2.1°C 90% 8.0 mph SE12.9 kmh SE 16.0 mph25.7 kmh 29.82 in1009.8 mb 0.00 in0.0 mm 0.00 in0.0 mm 0.05 in1.3 mm
10:00 AM 38.3°F3.5°C 35.9°F2.2°C 91% 10.0 mph SE16.1 kmh SE 21.0 mph33.8 kmh 29.81 in1009.5 mb 0.00 in0.0 mm 0.00 in0.0 mm 0.05 in1.3 mm
09:50 AM 38.1°F3.4°C 36.0°F2.2°C 92% 6.0 mph SE9.7 kmh SE 16.0 mph25.7 kmh 29.80 in1009.1 mb 0.00 in0.0 mm 0.00 in0.0 mm 0.05 in1.3 mm
09:40 AM 38.1°F3.4°C 36.0°F2.2°C 92% 6.0 mph SE9.7 kmh SE 13.0 mph20.9 kmh 29.79 in1008.8 mb 0.00 in0.0 mm 0.00 in0.0 mm 0.05 in1.3 mm
09:30 AM 38.1°F3.4°C 36.0°F2.2°C 92% 6.0 mph SE9.7 kmh SE 14.0 mph22.5 kmh 29.79 in1008.8 mb 0.00 in0.0 mm 0.00 in0.0 mm 0.05 in1.3 mm
09:20 AM 38.3°F3.5°C 36.2°F2.3°C 92% 5.0 mph SE8.0 kmh SE 12.0 mph19.3 kmh 29.78 in1008.5 mb 0.00 in0.0 mm 0.00 in0.0 mm 0.05 in1.3 mm
09:10 AM 38.3°F3.5°C 36.5°F2.5°C 93% 3.0 mph SE4.8 kmh SE 12.0 mph19.3 kmh 29.78 in1008.5 mb 0.00 in0.0 mm 0.00 in0.0 mm 0.05 in1.3 mm
09:00 AM 38.1°F3.4°C 36.3°F2.4°C 93% 3.0 mph SE4.8 kmh SE 12.0 mph19.3 kmh 29.77 in1008.1 mb 0.00 in0.0 mm 0.00 in0.0 mm 0.05 in1.3 mm
08:50 AM 37.9°F3.3°C 36.1°F2.3°C 93% 3.0 mph SE4.8 kmh SE 9.0 mph14.5 kmh 29.77 in1008.1 mb 0.00 in0.0 mm 0.00 in0.0 mm 0.05 in1.3 mm
08:40 AM 37.9°F3.3°C 36.1°F2.3°C 93% 2.0 mph ESE3.2 kmh ESE 7.0 mph11.3 kmh 29.77 in1008.1 mb 0.00 in0.0 mm 0.00 in0.0 mm 0.05 in1.3 mm
08:30 AM 37.8°F3.2°C 35.9°F2.2°C 93% 2.0 mph SE3.2 kmh SE 6.0 mph9.7 kmh 29.76 in1007.8 mb 0.00 in0.0 mm 0.00 in0.0 mm 0.05 in1.3 mm
08:20 AM 37.8°F3.2°C 35.9°F2.2°C 93% 3.0 mph SE4.8 kmh SE 9.0 mph14.5 kmh 29.76 in1007.8 mb 0.00 in0.0 mm 0.00 in0.0 mm 0.05 in1.3 mm
08:10 AM 37.8°F3.2°C 35.9°F2.2°C 93% 3.0 mph ESE4.8 kmh ESE 7.0 mph11.3 kmh 29.75 in1007.5 mb 0.00 in0.0 mm 0.00 in0.0 mm 0.05 in1.3 mm
08:00 AM 37.6°F3.1°C 35.7°F2.1°C 93% 2.0 mph SE3.2 kmh SE 8.0 mph12.9 kmh 29.75 in1007.5 mb 0.00 in0.0 mm 0.00 in0.0 mm 0.05 in1.3 mm
07:50 AM 37.6°F3.1°C 35.7°F2.1°C 93% 2.0 mph SE3.2 kmh SE 7.0 mph11.3 kmh 29.74 in1007.1 mb 0.00 in0.0 mm 0.00 in0.0 mm 0.05 in1.3 mm
07:40 AM 37.4°F3.0°C 35.6°F2.0°C 93% 1.0 mph SE1.6 kmh SE 3.0 mph4.8 kmh 29.74 in1007.1 mb 0.00 in0.0 mm 0.00 in0.0 mm 0.05 in1.3 mm
07:30 AM 37.2°F2.9°C 35.4°F1.9°C 93% 1.0 mph SE1.6 kmh SE 3.0 mph4.8 kmh 29.73 in1006.8 mb 0.00 in0.0 mm 0.00 in0.0 mm 0.05 in1.3 mm
07:20 AM 37.2°F2.9°C 35.4°F1.9°C 93% 1.0 mph ESE1.6 kmh ESE 3.0 mph4.8 kmh 29.73 in1006.8 mb 0.00 in0.0 mm 0.00 in0.0 mm 0.05 in1.3 mm
07:10 AM 37.0°F2.8°C 35.2°F1.8°C 93% 1.0 mph E1.6 kmh E 3.0 mph4.8 kmh 29.72 in1006.4 mb 0.00 in0.0 mm 0.00 in0.0 mm 0.05 in1.3 mm
07:00 AM 37.0°F2.8°C 35.2°F1.8°C 93% 2.0 mph E3.2 kmh E 3.0 mph4.8 kmh 29.72 in1006.4 mb 0.00 in0.0 mm 0.00 in0.0 mm 0.05 in1.3 mm
06:50 AM 37.0°F2.8°C 35.2°F1.8°C 93% 2.0 mph E3.2 kmh E 3.0 mph4.8 kmh 29.72 in1006.4 mb 0.00 in0.0 mm 0.00 in0.0 mm 0.05 in1.3 mm
06:40 AM 36.9°F2.7°C 35.0°F1.7°C 93% 1.0 mph ENE1.6 kmh ENE 2.0 mph3.2 kmh 29.71 in1006.1 mb 0.00 in0.0 mm 0.00 in0.0 mm 0.05 in1.3 mm
06:30 AM 36.9°F2.7°C 35.0°F1.7°C 93% 1.0 mph E1.6 kmh E 3.0 mph4.8 kmh 29.71 in1006.1 mb 0.00 in0.0 mm 0.00 in0.0 mm 0.05 in1.3 mm
06:20 AM 36.9°F2.7°C 35.0°F1.7°C 93% 2.0 mph SE3.2 kmh SE 3.0 mph4.8 kmh 29.71 in1006.1 mb 0.00 in0.0 mm 0.00 in0.0 mm 0.05 in1.3 mm
06:10 AM 36.9°F2.7°C 35.0°F1.7°C 93% 1.0 mph SE1.6 kmh SE 5.0 mph8.0 kmh 29.70 in1005.8 mb 0.00 in0.0 mm 0.00 in0.0 mm 0.05 in1.3 mm
06:00 AM 36.9°F2.7°C 35.0°F1.7°C 93% 1.0 mph ESE1.6 kmh ESE 3.0 mph4.8 kmh 29.70 in1005.8 mb 0.00 in0.0 mm 0.00 in0.0 mm 0.05 in1.3 mm
05:50 AM 36.9°F2.7°C 35.0°F1.7°C 93% 1.0 mph E1.6 kmh E 3.0 mph4.8 kmh 29.70 in1005.8 mb 0.00 in0.0 mm 0.00 in0.0 mm 0.05 in1.3 mm
05:40 AM 36.9°F2.7°C 35.0°F1.7°C 93% 1.0 mph E1.6 kmh E 3.0 mph4.8 kmh 29.70 in1005.8 mb 0.00 in0.0 mm 0.00 in0.0 mm 0.05 in1.3 mm
05:30 AM 36.9°F2.7°C 35.0°F1.7°C 93% 1.0 mph E1.6 kmh E 3.0 mph4.8 kmh 29.70 in1005.8 mb 0.00 in0.0 mm 0.00 in0.0 mm 0.05 in1.3 mm
05:20 AM 36.9°F2.7°C 35.0°F1.7°C 93% 1.0 mph E1.6 kmh E 3.0 mph4.8 kmh 29.69 in1005.4 mb 0.00 in0.0 mm 0.00 in0.0 mm 0.05 in1.3 mm
05:10 AM 36.9°F2.7°C 35.0°F1.7°C 93% 3.0 mph E4.8 kmh E 7.0 mph11.3 kmh 29.69 in1005.4 mb 0.00 in0.0 mm 0.00 in0.0 mm 0.05 in1.3 mm
05:00 AM 36.9°F2.7°C 35.0°F1.7°C 93% 3.0 mph E4.8 kmh E 8.0 mph12.9 kmh 29.69 in1005.4 mb 0.00 in0.0 mm 0.00 in0.0 mm 0.05 in1.3 mm
04:20 AM 37.4°F3.0°C 35.6°F2.0°C 93% 1.0 mph ENE1.6 kmh ENE 3.0 mph4.8 kmh 29.69 in1005.4 mb 0.01 in0.3 mm 0.00 in0.0 mm 0.05 in1.3 mm
04:10 AM 37.4°F3.0°C 35.6°F2.0°C 93% 1.0 mph ENE1.6 kmh ENE 3.0 mph4.8 kmh 29.69 in1005.4 mb 0.01 in0.3 mm 0.00 in0.0 mm 0.05 in1.3 mm
04:00 AM 37.4°F3.0°C 35.6°F2.0°C 93% 1.0 mph ENE1.6 kmh ENE 3.0 mph4.8 kmh 29.69 in1005.4 mb 0.01 in0.3 mm 0.00 in0.0 mm 0.05 in1.3 mm
03:50 AM 37.6°F3.1°C 35.5°F1.9°C 92% 1.0 mph ENE1.6 kmh ENE 5.0 mph8.0 kmh 29.69 in1005.4 mb 0.01 in0.3 mm 0.06 in1.5 mm 0.05 in1.3 mm
03:40 AM 37.6°F3.1°C 35.5°F1.9°C 92% 2.0 mph NE3.2 kmh NE 3.0 mph4.8 kmh 29.69 in1005.4 mb 0.00 in0.0 mm 0.00 in0.0 mm 0.04 in1.0 mm
03:30 AM 37.8°F3.2°C 35.6°F2.0°C 92% 1.0 mph NE1.6 kmh NE 3.0 mph4.8 kmh 29.69 in1005.4 mb 0.00 in0.0 mm 0.00 in0.0 mm 0.04 in1.0 mm
03:20 AM 37.8°F3.2°C 35.6°F2.0°C 92% 2.0 mph NE3.2 kmh NE 3.0 mph4.8 kmh 29.69 in1005.4 mb 0.00 in0.0 mm 0.00 in0.0 mm 0.04 in1.0 mm
03:10 AM 37.8°F3.2°C 35.6°F2.0°C 92% 3.0 mph NE4.8 kmh NE 6.0 mph9.7 kmh 29.69 in1005.4 mb 0.00 in0.0 mm 0.00 in0.0 mm 0.04 in1.0 mm
03:00 AM 37.8°F3.2°C 35.6°F2.0°C 92% 3.0 mph NE4.8 kmh NE 5.0 mph8.0 kmh 29.69 in1005.4 mb 0.01 in0.3 mm 0.00 in0.0 mm 0.04 in1.0 mm
02:50 AM 37.9°F3.3°C 35.8°F2.1°C 92% 3.0 mph NE4.8 kmh NE 5.0 mph8.0 kmh 29.69 in1005.4 mb 0.01 in0.3 mm 0.00 in0.0 mm 0.04 in1.0 mm
02:40 AM 37.9°F3.3°C 35.8°F2.1°C 92% 3.0 mph NE4.8 kmh NE 5.0 mph8.0 kmh 29.70 in1005.8 mb 0.01 in0.3 mm 0.00 in0.0 mm 0.04 in1.0 mm
02:30 AM 38.1°F3.4°C 36.0°F2.2°C 92% 3.0 mph NE4.8 kmh NE 5.0 mph8.0 kmh 29.70 in1005.8 mb 0.01 in0.3 mm 0.00 in0.0 mm 0.04 in1.0 mm
02:20 AM 38.1°F3.4°C 36.0°F2.2°C 92% 3.0 mph NNE4.8 kmh NNE 8.0 mph12.9 kmh 29.70 in1005.8 mb 0.01 in0.3 mm 0.00 in0.0 mm 0.04 in1.0 mm
02:10 AM 38.5°F3.6°C 36.4°F2.4°C 92% 3.0 mph NNE4.8 kmh NNE 7.0 mph11.3 kmh 29.70 in1005.8 mb 0.01 in0.3 mm 0.06 in1.5 mm 0.04 in1.0 mm
02:00 AM 38.5°F3.6°C 36.4°F2.4°C 92% 3.0 mph NNE4.8 kmh NNE 6.0 mph9.7 kmh 29.71 in1006.1 mb 0.00 in0.0 mm 0.00 in0.0 mm 0.03 in0.8 mm
01:50 AM 38.7°F3.7°C 36.5°F2.5°C 92% 3.0 mph NNE4.8 kmh NNE 8.0 mph12.9 kmh 29.71 in1006.1 mb 0.01 in0.3 mm 0.00 in0.0 mm 0.03 in0.8 mm
01:40 AM 38.7°F3.7°C 36.5°F2.5°C 92% 3.0 mph NNE4.8 kmh NNE 8.0 mph12.9 kmh 29.71 in1006.1 mb 0.02 in0.5 mm 0.00 in0.0 mm 0.03 in0.8 mm
01:30 AM 38.8°F3.8°C 36.4°F2.4°C 91% 3.0 mph NNE4.8 kmh NNE 9.0 mph14.5 kmh 29.71 in1006.1 mb 0.02 in0.5 mm 0.00 in0.0 mm 0.03 in0.8 mm
01:20 AM 38.8°F3.8°C 36.4°F2.4°C 91% 3.0 mph NNE4.8 kmh NNE 9.0 mph14.5 kmh 29.71 in1006.1 mb 0.02 in0.5 mm 0.00 in0.0 mm 0.03 in0.8 mm
01:10 AM 39.0°F3.9°C 36.6°F2.6°C 91% 6.0 mph NNE9.7 kmh NNE 10.0 mph16.1 kmh 29.72 in1006.4 mb 0.02 in0.5 mm 0.00 in0.0 mm 0.03 in0.8 mm
01:00 AM 39.2°F4.0°C 36.8°F2.7°C 91% 6.0 mph NNE9.7 kmh NNE 9.0 mph14.5 kmh 29.72 in1006.4 mb 0.02 in0.5 mm 0.00 in0.0 mm 0.02 in0.5 mm
12:50 AM 39.4°F4.1°C 37.0°F2.8°C 91% 5.0 mph NNE8.0 kmh NNE 8.0 mph12.9 kmh 29.72 in1006.4 mb 0.02 in0.5 mm 0.00 in0.0 mm 0.02 in0.5 mm
12:40 AM 39.4°F4.1°C 37.0°F2.8°C 91% 3.0 mph NNE4.8 kmh NNE 8.0 mph12.9 kmh 29.73 in1006.8 mb 0.02 in0.5 mm 0.00 in0.0 mm 0.02 in0.5 mm
12:30 AM 39.4°F4.1°C 36.7°F2.6°C 90% 3.0 mph NNE4.8 kmh NNE 6.0 mph9.7 kmh 29.73 in1006.8 mb 0.02 in0.5 mm 0.00 in0.0 mm 0.02 in0.5 mm
12:20 AM 39.4°F4.1°C 36.7°F2.6°C 90% 3.0 mph NNE4.8 kmh NNE 10.0 mph16.1 kmh 29.74 in1007.1 mb 0.03 in0.8 mm 0.06 in1.5 mm 0.02 in0.5 mm
12:10 AM 39.4°F4.1°C 36.7°F2.6°C 90% 6.0 mph NNE9.7 kmh NNE 10.0 mph16.1 kmh 29.74 in1007.1 mb 0.02 in0.5 mm 0.00 in0.0 mm 0.01 in0.3 mm
12:00 AM 39.4°F4.1°C 36.4°F2.4°C 89% 6.0 mph N9.7 kmh N 12.0 mph19.3 kmh 29.74 in1007.1 mb 0.02 in0.5 mm 0.00 in0.0 mm 0.02 in0.5 mm